Time;durP1;ratioP1;P1;durP2;ratioP2;P2;SDS_P1;SDS_P2;PMS_P1;PMS_P2;Temp;Humidity;BMP_temperature;BMP_pressure;BME280_temperature;BME280_humidity;BME280_pressure;Samples;Min_cycle;Max_cycle;Signal;HPM_P1;HPM_P2
2021/01/23 00:01:08;;;;;;;3.20;3.00;;;2.10;99.90;;;;;;5063552;28;20662;-92
2021/01/23 00:03:35;;;;;;;3.00;2.80;;;1.80;99.90;;;;;;5067568;28;20819;-93
2021/01/23 00:06:04;;;;;;;3.30;3.10;;;1.90;99.90;;;;;;5071131;28;20624;-94
2021/01/23 00:08:32;;;;;;;3.17;2.87;;;1.90;99.90;;;;;;5064898;28;20654;-92
2021/01/23 00:10:58;;;;;;;3.10;2.57;;;2.00;99.90;;;;;;5062567;28;21340;-91
2021/01/23 00:13:25;;;;;;;2.90;2.70;;;2.00;99.90;;;;;;5065771;28;21015;-91
2021/01/23 00:15:51;;;;;;;2.93;2.73;;;1.90;99.90;;;;;;5066490;28;20644;-93
2021/01/23 00:18:19;;;;;;;2.37;2.23;;;2.10;99.90;;;;;;5068582;28;20625;-94
2021/01/23 00:20:45;;;;;;;2.70;2.50;;;1.90;99.90;;;;;;5069644;28;20656;-94
2021/01/23 00:23:12;;;;;;;3.20;2.90;;;2.00;99.90;;;;;;5062283;28;20659;-93
2021/01/23 00:25:38;;;;;;;4.50;4.10;;;1.90;99.90;;;;;;5062468;28;20689;-93
2021/01/23 00:28:07;;;;;;;3.70;3.40;;;2.00;99.90;;;;;;5067543;28;20759;-93
2021/01/23 00:30:35;;;;;;;3.97;3.60;;;1.90;99.90;;;;;;5064967;28;20667;-93
2021/01/23 00:33:04;;;;;;;2.90;2.70;;;1.90;99.90;;;;;;5089428;28;20606;-93
2021/01/23 00:35:39;;;;;;;3.00;2.80;;;1.90;99.90;;;;;;5080623;28;20727;-93
2021/01/23 00:38:05;;;;;;;3.43;3.23;;;2.00;99.90;;;;;;5065522;28;21250;-93
2021/01/23 00:40:31;;;;;;;3.70;3.40;;;2.00;99.90;;;;;;5064731;28;20652;-92
2021/01/23 00:43:00;;;;;;;3.80;3.33;;;2.10;99.90;;;;;;5067877;28;21000;-92
2021/01/23 00:45:26;;;;;;;2.83;2.70;;;1.90;99.90;;;;;;5061315;28;20633;-92
2021/01/23 00:47:55;;;;;;;4.23;3.90;;;1.90;99.90;;;;;;5064807;28;20668;-93
2021/01/23 00:50:21;;;;;;;4.10;3.80;;;1.90;99.90;;;;;;5061584;28;20661;-92
2021/01/23 00:52:50;;;;;;;4.50;4.10;;;1.90;99.90;;;;;;5067831;28;20637;-92
2021/01/23 00:55:17;;;;;;;4.60;4.23;;;1.90;99.90;;;;;;5061383;28;20665;-92
2021/01/23 00:57:44;;;;;;;5.07;4.67;;;1.80;99.90;;;;;;5062807;28;20622;-92
2021/01/23 01:00:12;;;;;;;5.87;5.37;;;1.90;99.90;;;;;;5064846;28;20664;-92
2021/01/23 01:02:38;;;;;;;5.53;5.13;;;1.80;99.90;;;;;;5063865;28;20641;-91
2021/01/23 01:05:06;;;;;;;5.93;5.53;;;1.90;99.90;;;;;;5068023;28;20636;-92
2021/01/23 01:07:32;;;;;;;6.77;6.20;;;1.90;99.90;;;;;;5068238;28;20632;-91
2021/01/23 01:09:59;;;;;;;7.83;7.20;;;1.90;99.90;;;;;;5064975;28;20659;-90
2021/01/23 01:12:27;;;;;;;7.80;7.20;;;1.90;99.90;;;;;;5059956;28;20635;-90
2021/01/23 01:14:55;;;;;;;8.80;8.10;;;1.90;99.90;;;;;;5070228;28;20684;-93
2021/01/23 01:17:22;;;;;;;8.23;7.53;;;2.00;99.90;;;;;;5066612;28;20640;-92
2021/01/23 01:19:48;;;;;;;8.30;7.60;;;2.00;99.90;;;;;;5063815;28;21365;-92
2021/01/23 01:22:14;;;;;;;8.07;7.37;;;1.90;99.90;;;;;;5064434;28;20637;-92
2021/01/23 01:24:41;;;;;;;7.70;7.10;;;2.10;99.90;;;;;;5067385;28;21163;-92
2021/01/23 01:27:08;;;;;;;6.40;5.93;;;2.00;99.90;;;;;;5065420;28;20644;-92
2021/01/23 01:29:35;;;;;;;5.03;4.70;;;2.00;99.90;;;;;;5065389;28;21246;-92
2021/01/23 01:32:01;;;;;;;6.47;5.87;;;2.00;99.90;;;;;;5065688;28;20638;-93
2021/01/23 01:34:28;;;;;;;5.37;4.97;;;2.00;99.90;;;;;;5073930;28;20621;-92
2021/01/23 01:36:54;;;;;;;5.63;5.23;;;2.00;99.90;;;;;;5074323;28;20693;-91
2021/01/23 01:39:20;;;;;;;4.93;4.60;;;2.10;99.90;;;;;;5071570;28;20617;-91
2021/01/23 01:41:47;;;;;;;5.80;5.40;;;2.00;99.90;;;;;;5072193;28;20633;-91
2021/01/23 01:44:14;;;;;;;6.93;4.83;;;2.10;99.90;;;;;;5071041;28;20710;-90
2021/01/23 01:46:42;;;;;;;6.10;5.60;;;2.10;99.90;;;;;;5067595;28;20697;-91
2021/01/23 01:49:10;;;;;;;6.37;5.87;;;2.00;99.90;;;;;;5069974;28;20676;-93
2021/01/23 01:51:36;;;;;;;6.40;5.90;;;1.90;99.90;;;;;;5064900;28;21170;-91
2021/01/23 01:54:03;;;;;;;8.87;8.17;;;2.00;99.90;;;;;;5072229;28;21159;-91
2021/01/23 01:56:29;;;;;;;9.67;8.87;;;2.00;99.90;;;;;;5060612;28;20645;-91
2021/01/23 01:58:57;;;;;;;10.10;9.30;;;2.10;99.90;;;;;;5066963;28;20637;-91
2021/01/23 02:01:24;;;;;;;11.83;10.87;;;2.40;99.90;;;;;;5063676;28;20645;-91
2021/01/23 02:04:12;;;;;;;11.10;10.20;;;2.10;99.90;;;;;;5065386;28;20664;-91
2021/01/23 02:06:58;;;;;;;12.40;11.30;;;2.00;99.90;;;;;;5051550;28;20636;-91
2021/01/23 02:09:37;;;;;;;12.87;11.80;;;2.00;99.90;;;;;;5060801;28;20653;-91
2021/01/23 02:12:15;;;;;;;12.90;11.80;;;2.10;99.90;;;;;;5063785;28;20597;-91
2021/01/23 02:14:49;;;;;;;13.50;12.40;;;2.00;99.90;;;;;;5064709;28;20705;-91
2021/01/23 02:17:21;;;;;;;12.83;11.83;;;2.00;99.90;;;;;;5059168;28;20660;-91
2021/01/23 02:20:13;;;;;;;12.20;11.30;;;2.10;99.90;;;;;;5070684;28;20655;-90
2021/01/23 02:23:11;;;;;;;12.30;11.30;;;2.00;99.90;;;;;;5067505;28;20608;-90
2021/01/23 02:26:01;;;;;;;11.97;11.07;;;2.00;99.90;;;;;;5062354;28;20687;-90
2021/01/23 02:28:44;;;;;;;10.70;9.80;;;2.00;99.90;;;;;;5071114;28;20645;-92
2021/01/23 02:31:15;;;;;;;10.03;9.30;;;2.10;99.90;;;;;;5067765;28;20669;-91
2021/01/23 02:33:45;;;;;;;9.13;8.43;;;2.10;99.90;;;;;;5067338;28;20635;-91
2021/01/23 02:36:12;;;;;;;8.60;8.00;;;2.10;99.90;;;;;;5067895;28;20728;-92
2021/01/23 02:38:44;;;;;;;8.33;7.63;;;2.50;99.90;;;;;;5065577;28;20638;-92
2021/01/23 02:41:10;;;;;;;7.70;7.10;;;2.20;99.90;;;;;;5070726;28;20670;-91
2021/01/23 02:43:42;;;;;;;8.03;7.43;;;2.30;99.90;;;;;;5065787;28;20645;-91
2021/01/23 02:46:11;;;;;;;6.93;6.43;;;2.30;99.90;;;;;;5068030;28;20733;-91
2021/01/23 02:48:38;;;;;;;7.30;6.80;;;2.30;99.90;;;;;;5071447;28;20680;-91
2021/01/23 02:51:09;;;;;;;8.10;7.50;;;2.30;99.90;;;;;;5064854;28;20671;-91
2021/01/23 02:53:38;;;;;;;7.30;6.80;;;2.30;99.90;;;;;;5068291;28;20707;-91
2021/01/23 02:56:09;;;;;;;7.60;7.00;;;2.30;99.90;;;;;;5068903;28;20650;-91
2021/01/23 02:58:37;;;;;;;6.03;5.63;;;2.20;99.90;;;;;;5075982;28;20643;-91
2021/01/23 03:01:05;;;;;;;7.23;6.67;;;2.30;99.90;;;;;;5069013;28;20709;-91
2021/01/23 03:03:34;;;;;;;7.00;6.50;;;2.30;99.90;;;;;;5064548;28;20634;-91
2021/01/23 03:06:06;;;;;;;6.70;6.10;;;2.30;99.90;;;;;;5044639;28;20638;-91
2021/01/23 03:08:32;;;;;;;5.10;4.80;;;2.30;99.90;;;;;;5070544;28;20667;-91
2021/01/23 03:10:59;;;;;;;5.30;5.00;;;2.30;99.90;;;;;;5065682;28;20687;-92
2021/01/23 03:13:26;;;;;;;5.60;5.13;;;2.20;99.90;;;;;;5065637;28;20633;-90
2021/01/23 03:15:52;;;;;;;5.27;4.87;;;2.30;99.90;;;;;;5065244;28;20979;-90
2021/01/23 03:18:19;;;;;;;4.40;4.10;;;2.40;99.90;;;;;;5069353;28;20633;-91
2021/01/23 03:20:47;;;;;;;4.83;4.43;;;2.30;99.90;;;;;;5066623;28;20657;-91
2021/01/23 03:23:14;;;;;;;4.73;4.40;;;2.30;99.90;;;;;;5062146;28;21251;-91
2021/01/23 03:25:40;;;;;;;4.33;4.03;;;2.30;99.90;;;;;;5064679;28;20637;-91
2021/01/23 03:28:06;;;;;;;4.53;4.23;;;2.30;99.90;;;;;;5068326;28;20661;-91
2021/01/23 03:30:33;;;;;;;5.57;5.20;;;2.30;99.90;;;;;;5069841;28;20633;-91
2021/01/23 03:33:00;;;;;;;4.60;4.30;;;2.30;99.90;;;;;;5065235;28;20698;-90
2021/01/23 03:35:27;;;;;;;4.70;4.40;;;2.30;99.90;;;;;;5066593;28;20648;-91
2021/01/23 03:37:55;;;;;;;5.27;4.97;;;2.30;99.90;;;;;;5069368;28;20629;-91
2021/01/23 03:40:21;;;;;;;4.53;4.13;;;2.40;99.90;;;;;;5064087;28;20653;-91
2021/01/23 03:42:49;;;;;;;4.80;4.50;;;2.40;99.90;;;;;;5067994;28;20641;-92
2021/01/23 03:45:16;;;;;;;4.80;4.40;;;2.50;99.90;;;;;;5071139;28;20967;-92
2021/01/23 03:47:42;;;;;;;5.00;4.70;;;2.50;99.90;;;;;;5062287;28;20629;-92
2021/01/23 03:50:11;;;;;;;4.47;4.27;;;2.50;99.90;;;;;;5068012;28;21010;-91
2021/01/23 03:52:38;;;;;;;3.70;3.50;;;2.60;99.90;;;;;;5071328;28;20644;-92
2021/01/23 03:55:07;;;;;;;3.47;3.27;;;2.50;99.90;;;;;;5067905;28;20621;-92
2021/01/23 03:57:34;;;;;;;3.80;3.53;;;2.50;99.90;;;;;;5059517;28;20640;-91
2021/01/23 04:00:00;;;;;;;3.87;3.57;;;2.60;99.90;;;;;;5064514;28;20645;-91
2021/01/23 04:02:26;;;;;;;3.93;3.73;;;2.60;99.90;;;;;;5071096;28;20633;-92
2021/01/23 04:04:55;;;;;;;4.97;4.57;;;2.60;99.90;;;;;;5068823;28;21095;-91
2021/01/23 04:07:21;;;;;;;4.40;4.17;;;2.60;99.90;;;;;;5064628;28;20660;-91
2021/01/23 04:09:48;;;;;;;4.00;3.70;;;2.70;99.90;;;;;;5065684;28;20764;-91
2021/01/23 04:12:15;;;;;;;4.50;4.20;;;2.70;99.90;;;;;;5065466;28;20633;-92
2021/01/23 04:14:41;;;;;;;3.73;3.53;;;2.70;99.90;;;;;;5072737;28;20624;-91
2021/01/23 04:17:09;;;;;;;4.83;4.43;;;2.70;99.90;;;;;;5067665;28;21223;-91
2021/01/23 04:19:35;;;;;;;4.30;4.00;;;2.80;99.90;;;;;;5068692;28;20654;-91
2021/01/23 04:22:02;;;;;;;3.30;3.10;;;2.80;99.90;;;;;;5073793;28;20634;-91
2021/01/23 04:24:28;;;;;;;4.10;3.90;;;2.80;99.90;;;;;;5068255;28;20689;-91
2021/01/23 04:26:54;;;;;;;3.30;3.10;;;2.80;99.90;;;;;;5066065;28;20632;-91
2021/01/23 04:29:22;;;;;;;3.63;3.33;;;2.90;99.90;;;;;;5063775;28;20665;-91
2021/01/23 04:31:48;;;;;;;4.17;3.77;;;3.00;99.90;;;;;;5063162;28;20644;-91
2021/01/23 04:34:14;;;;;;;4.00;3.80;;;3.40;99.90;;;;;;5067518;28;20589;-91
2021/01/23 04:36:41;;;;;;;3.53;3.33;;;3.10;99.90;;;;;;5065183;28;20636;-91
2021/01/23 04:39:07;;;;;;;2.70;2.50;;;3.00;99.90;;;;;;5067971;28;20642;-92
2021/01/23 04:41:35;;;;;;;3.60;3.20;;;3.00;99.90;;;;;;5064781;28;20657;-91
2021/01/23 04:44:01;;;;;;;3.30;3.10;;;3.00;99.90;;;;;;5066763;28;20636;-91
2021/01/23 04:46:29;;;;;;;3.97;3.67;;;2.90;99.90;;;;;;5067318;28;20971;-91
2021/01/23 04:48:57;;;;;;;3.17;2.97;;;3.00;99.90;;;;;;5065375;28;20661;-89
2021/01/23 04:51:25;;;;;;;4.10;3.70;;;3.00;99.90;;;;;;5065110;28;20721;-89
2021/01/23 04:53:51;;;;;;;3.97;3.67;;;3.10;99.90;;;;;;5070025;28;20605;-89
2021/01/23 04:56:17;;;;;;;3.40;3.10;;;3.10;99.90;;;;;;5071668;28;20711;-89
2021/01/23 04:58:44;;;;;;;3.10;2.90;;;3.00;99.90;;;;;;5071141;28;20629;-89
2021/01/23 05:01:12;;;;;;;3.03;2.83;;;3.00;99.90;;;;;;5067229;28;20697;-93
2021/01/23 05:03:57;;;;;;;3.30;3.10;;;2.80;99.90;;;;;;5066747;28;20586;-91
2021/01/23 05:06:25;;;;;;;3.50;3.30;;;2.70;99.90;;;;;;5064451;28;20630;-93
2021/01/23 05:08:52;;;;;;;3.30;3.10;;;2.60;99.90;;;;;;5065234;28;20661;-93
2021/01/23 05:11:19;;;;;;;3.80;3.60;;;3.10;99.90;;;;;;5064108;28;20965;-91
2021/01/23 05:14:09;;;;;;;3.97;3.57;;;2.70;99.90;;;;;;5067054;28;21078;-91
2021/01/23 05:16:35;;;;;;;4.10;3.80;;;2.70;99.90;;;;;;5067438;28;20641;-92
2021/01/23 05:19:05;;;;;;;3.90;3.60;;;3.20;99.90;;;;;;5068353;28;20641;-92
2021/01/23 05:21:33;;;;;;;6.10;3.00;;;2.60;99.90;;;;;;5071544;28;20640;-91
2021/01/23 05:24:07;;;;;;;3.67;3.43;;;2.40;99.90;;;;;;5070202;28;21509;-91
2021/01/23 05:26:34;;;;;;;3.37;3.00;;;2.40;99.90;;;;;;5071324;28;21242;-89
2021/01/23 05:29:09;;;;;;;4.60;3.20;;;2.40;99.90;;;;;;5068722;28;20661;-89
2021/01/23 05:31:35;;;;;;;3.53;3.23;;;2.30;99.90;;;;;;5062603;28;20628;-89
2021/01/23 05:34:18;;;;;;;4.03;3.63;;;2.40;99.90;;;;;;5067907;28;20677;-89
2021/01/23 05:36:44;;;;;;;3.43;3.23;;;2.60;99.90;;;;;;5057196;28;20637;-90
2021/01/23 05:39:11;;;;;;;3.70;3.40;;;2.70;99.90;;;;;;5068876;28;21127;-90
2021/01/23 05:41:37;;;;;;;5.20;2.93;;;2.70;99.90;;;;;;5068554;28;21073;-92
2021/01/23 05:44:11;;;;;;;6.80;3.50;;;2.60;99.90;;;;;;5068692;28;20715;-89
2021/01/23 05:46:38;;;;;;;5.33;3.67;;;2.60;99.90;;;;;;5062178;28;21205;-90
2021/01/23 05:49:05;;;;;;;3.60;3.30;;;2.80;99.90;;;;;;5072127;28;20652;-89
2021/01/23 05:51:31;;;;;;;4.13;3.83;;;2.80;99.90;;;;;;5067323;28;21237;-90
2021/01/23 05:53:58;;;;;;;3.33;3.03;;;2.80;99.90;;;;;;5071870;28;21036;-89
2021/01/23 05:56:25;;;;;;;4.03;3.53;;;2.50;99.90;;;;;;5068169;28;21075;-90
2021/01/23 05:58:52;;;;;;;3.87;3.60;;;2.60;99.90;;;;;;5068053;28;20682;-89
2021/01/23 06:01:20;;;;;;;3.70;3.40;;;2.50;99.90;;;;;;5062203;28;21884;-89
2021/01/23 06:03:48;;;;;;;4.23;3.83;;;2.60;99.90;;;;;;5066731;28;20652;-90
2021/01/23 06:06:16;;;;;;;3.53;3.33;;;2.60;99.90;;;;;;5067608;28;20653;-90
2021/01/23 06:08:44;;;;;;;4.20;3.90;;;2.70;99.90;;;;;;5068830;28;20649;-90
2021/01/23 06:11:39;;;;;;;3.57;3.37;;;2.70;99.90;;;;;;5061811;28;20633;-90
2021/01/23 06:14:05;;;;;;;3.40;3.10;;;2.60;99.90;;;;;;5063366;28;20668;-90
2021/01/23 06:16:39;;;;;;;3.33;2.80;;;2.60;99.90;;;;;;5067581;28;20624;-91
2021/01/23 06:19:39;;;;;;;3.40;3.10;;;2.60;99.90;;;;;;5067979;28;20629;-91
2021/01/23 06:22:07;;;;;;;3.60;3.33;;;2.70;99.90;;;;;;5070201;28;20748;-91
2021/01/23 06:24:53;;;;;;;3.80;3.10;;;2.80;99.90;;;;;;5070116;28;20662;-90
2021/01/23 06:27:19;;;;;;;3.17;2.93;;;2.80;99.90;;;;;;5068442;28;20727;-90
2021/01/23 06:29:46;;;;;;;3.13;2.93;;;2.80;99.90;;;;;;5086600;28;20637;-90
2021/01/23 06:32:31;;;;;;;3.47;3.17;;;2.80;99.90;;;;;;5081851;28;21067;-91
2021/01/23 06:35:00;;;;;;;2.67;2.57;;;2.80;99.90;;;;;;5069464;28;20667;-90
2021/01/23 06:37:30;;;;;;;3.57;3.37;;;2.70;99.90;;;;;;5072933;28;20743;-90
2021/01/23 06:40:10;;;;;;;3.20;3.00;;;2.70;99.90;;;;;;5091296;28;20634;-89
2021/01/23 06:42:39;;;;;;;3.87;3.57;;;2.70;99.90;;;;;;5084493;28;20653;-90
2021/01/23 06:45:19;;;;;;;3.40;3.20;;;2.70;99.90;;;;;;5089079;28;20675;-90
2021/01/23 06:47:48;;;;;;;3.90;3.60;;;2.60;99.90;;;;;;5085541;28;21055;-89
2021/01/23 06:50:34;;;;;;;3.63;3.10;;;3.10;99.90;;;;;;5084779;28;20608;-89
2021/01/23 06:53:05;;;;;;;3.40;3.20;;;2.60;99.90;;;;;;5091500;28;20613;-90
2021/01/23 06:55:49;;;;;;;4.00;3.70;;;2.60;99.90;;;;;;5090858;28;20669;-90
2021/01/23 06:58:17;;;;;;;2.70;2.60;;;2.70;99.90;;;;;;5070842;28;20628;-90
2021/01/23 07:00:45;;;;;;;3.60;3.40;;;2.60;99.90;;;;;;5066925;28;20645;-90
2021/01/23 07:03:13;;;;;;;3.80;3.50;;;2.50;99.90;;;;;;5068284;28;20625;-90
2021/01/23 07:05:51;;;;;;;4.77;3.40;;;2.60;99.90;;;;;;5066509;28;21058;-91
2021/01/23 07:08:26;;;;;;;4.27;3.90;;;2.60;99.90;;;;;;5069330;28;20817;-92
2021/01/23 07:11:13;;;;;;;4.43;3.40;;;2.60;99.90;;;;;;5066420;28;20700;-90
2021/01/23 07:13:55;;;;;;;5.23;4.67;;;2.70;99.90;;;;;;5065704;28;20636;-90
2021/01/23 07:16:22;;;;;;;14.77;13.47;;;2.70;99.90;;;;;;5061468;28;20641;-90
2021/01/23 07:18:52;;;;;;;7.13;6.63;;;2.70;99.90;;;;;;5065708;28;20665;-91
2021/01/23 07:21:21;;;;;;;6.07;5.60;;;2.70;99.90;;;;;;5065438;28;20629;-90
2021/01/23 07:23:48;;;;;;;4.70;4.40;;;2.50;99.90;;;;;;5065663;28;21302;-91
2021/01/23 07:26:18;;;;;;;5.30;4.90;;;2.80;99.90;;;;;;5068294;28;20637;-91
2021/01/23 07:28:47;;;;;;;4.30;4.00;;;2.60;99.90;;;;;;5065910;28;20761;-90
2021/01/23 07:31:18;;;;;;;5.60;4.77;;;2.60;99.90;;;;;;5065411;28;20709;-91
2021/01/23 07:33:45;;;;;;;4.83;4.40;;;2.50;99.90;;;;;;5061692;28;20709;-90
2021/01/23 07:36:11;;;;;;;4.53;4.23;;;2.50;99.90;;;;;;5067092;28;20633;-92
2021/01/23 07:38:38;;;;;;;6.30;3.43;;;3.10;99.90;;;;;;5068573;28;20630;-91
2021/01/23 07:41:05;;;;;;;4.03;3.73;;;2.60;99.90;;;;;;5069423;28;20621;-91
2021/01/23 07:43:32;;;;;;;3.97;3.70;;;2.60;99.90;;;;;;5064380;28;20644;-92
2021/01/23 07:45:58;;;;;;;3.70;3.40;;;2.60;99.90;;;;;;5064062;28;20648;-90
2021/01/23 07:48:25;;;;;;;4.10;3.80;;;2.50;99.90;;;;;;5064970;28;20665;-89
2021/01/23 07:50:51;;;;;;;3.67;3.37;;;2.50;99.90;;;;;;5062268;28;20629;-88
2021/01/23 07:53:19;;;;;;;4.87;4.57;;;2.60;99.90;;;;;;5061508;28;20861;-88
2021/01/23 07:55:46;;;;;;;4.30;3.90;;;2.70;99.90;;;;;;5064730;28;20637;-87
2021/01/23 07:58:14;;;;;;;4.10;3.80;;;2.70;99.90;;;;;;5064007;28;21058;-88
2021/01/23 08:00:41;;;;;;;4.27;3.87;;;2.80;99.90;;;;;;5060179;28;20632;-88
2021/01/23 08:03:08;;;;;;;5.63;5.00;;;2.80;99.90;;;;;;5064591;28;20627;-88
2021/01/23 08:05:45;;;;;;;11.33;5.50;;;2.90;99.90;;;;;;5060938;28;20694;-88
2021/01/23 08:08:28;;;;;;;5.73;4.93;;;3.00;99.90;;;;;;5065814;28;21235;-89
2021/01/23 08:10:58;;;;;;;5.57;5.07;;;3.00;99.90;;;;;;5066291;28;20744;-88
2021/01/23 08:13:31;;;;;;;5.40;4.93;;;3.60;99.90;;;;;;5064655;28;20695;-88
2021/01/23 08:16:10;;;;;;;4.80;4.40;;;3.10;99.90;;;;;;5064004;28;20637;-87
2021/01/23 08:18:37;;;;;;;4.97;4.47;;;3.10;99.90;;;;;;5062870;28;20670;-87
2021/01/23 08:21:14;;;;;;;5.43;5.03;;;3.10;99.90;;;;;;5063014;28;20882;-87
2021/01/23 08:23:40;;;;;;;4.70;4.30;;;3.10;99.90;;;;;;5063085;28;20631;-86
2021/01/23 08:26:07;;;;;;;5.40;5.00;;;3.10;99.90;;;;;;5064510;28;20636;-88
2021/01/23 08:28:39;;;;;;;5.60;5.20;;;3.10;99.90;;;;;;5062062;28;21284;-88
2021/01/23 08:31:14;;;;;;;5.60;5.20;;;3.10;99.90;;;;;;5063326;28;21070;-88
2021/01/23 08:33:40;;;;;;;5.70;5.30;;;3.10;99.90;;;;;;5058577;28;20678;-87
2021/01/23 08:36:07;;;;;;;5.50;5.00;;;3.10;99.90;;;;;;5060927;28;21471;-88
2021/01/23 08:38:33;;;;;;;5.50;5.10;;;3.10;99.90;;;;;;5064170;28;20649;-88
2021/01/23 08:41:00;;;;;;;5.20;4.70;;;3.20;99.90;;;;;;5062921;28;20628;-88
2021/01/23 08:43:28;;;;;;;6.13;5.20;;;3.20;99.90;;;;;;5064065;28;20976;-88
2021/01/23 08:45:58;;;;;;;5.87;5.37;;;3.40;99.90;;;;;;5074188;28;20637;-90
2021/01/23 08:48:25;;;;;;;8.57;7.87;;;3.40;99.90;;;;;;5061263;28;20676;-89
2021/01/23 08:50:52;;;;;;;7.20;6.70;;;3.50;99.90;;;;;;5056416;28;20670;-89
2021/01/23 08:53:18;;;;;;;6.20;5.60;;;3.40;99.90;;;;;;5065168;28;20612;-89
2021/01/23 08:55:44;;;;;;;6.23;5.63;;;3.40;99.90;;;;;;5065871;28;20636;-92
2021/01/23 08:58:11;;;;;;;10.43;5.93;;;3.50;99.90;;;;;;5064232;28;20664;-90
2021/01/23 09:00:37;;;;;;;5.53;5.00;;;3.80;99.90;;;;;;5064041;28;20705;-91
2021/01/23 09:03:05;;;;;;;5.90;5.40;;;3.80;99.90;;;;;;5061359;28;20644;-90
2021/01/23 09:05:31;;;;;;;5.70;5.20;;;3.90;99.90;;;;;;5064554;28;20641;-91
2021/01/23 09:07:58;;;;;;;5.40;4.90;;;3.80;99.90;;;;;;5064618;28;21177;-91
2021/01/23 09:10:24;;;;;;;5.73;5.23;;;3.90;99.90;;;;;;5056942;28;20665;-89
2021/01/23 09:12:51;;;;;;;5.47;5.00;;;3.80;99.90;;;;;;5051595;28;20622;-89
2021/01/23 09:15:17;;;;;;;5.10;4.60;;;3.80;99.90;;;;;;5062588;28;20614;-89
2021/01/23 09:17:44;;;;;;;5.93;5.43;;;3.80;99.90;;;;;;5066394;28;20695;-88
2021/01/23 09:20:12;;;;;;;6.43;5.33;;;3.80;99.90;;;;;;5069747;28;21051;-90
2021/01/23 09:22:39;;;;;;;6.17;5.67;;;4.00;99.90;;;;;;5058636;28;20924;-88
2021/01/23 09:25:07;;;;;;;5.60;5.13;;;4.10;99.90;;;;;;5061686;28;20635;-89
2021/01/23 09:27:34;;;;;;;5.47;4.67;;;4.10;99.90;;;;;;5071840;28;20641;-90
2021/01/23 09:30:00;;;;;;;6.33;4.10;;;4.00;99.90;;;;;;5061638;28;20718;-89
2021/01/23 09:32:28;;;;;;;6.13;4.17;;;4.20;99.90;;;;;;5064736;28;21036;-89
2021/01/23 09:34:55;;;;;;;4.33;3.97;;;4.30;99.90;;;;;;5054052;28;20625;-90
2021/01/23 09:37:23;;;;;;;6.20;4.10;;;4.30;99.90;;;;;;5063732;28;20619;-90
2021/01/23 09:39:49;;;;;;;5.20;4.70;;;4.40;99.90;;;;;;5067585;28;21008;-90
2021/01/23 09:42:16;;;;;;;5.47;3.70;;;5.30;99.90;;;;;;5065412;28;21001;-89
2021/01/23 09:44:42;;;;;;;3.80;2.90;;;4.70;99.90;;;;;;5065664;28;20617;-87
2021/01/23 09:47:12;;;;;;;3.63;3.33;;;4.90;99.90;;;;;;5065558;28;20612;-88
2021/01/23 09:49:38;;;;;;;4.47;3.47;;;5.20;99.90;;;;;;5070855;28;20654;-88
2021/01/23 09:52:06;;;;;;;3.80;3.40;;;5.50;99.90;;;;;;5067316;28;21385;-88
2021/01/23 09:54:33;;;;;;;4.77;3.17;;;5.60;99.90;;;;;;5065563;28;20624;-89
2021/01/23 09:57:01;;;;;;;3.40;3.10;;;5.80;99.90;;;;;;5064471;28;20935;-92
2021/01/23 09:59:28;;;;;;;6.43;3.27;;;5.90;99.90;;;;;;5068547;28;20598;-94
2021/01/23 10:01:55;;;;;;;3.83;3.33;;;5.90;99.90;;;;;;5065440;28;20668;-93
2021/01/23 10:04:22;;;;;;;3.10;2.90;;;5.80;99.90;;;;;;5067836;28;21249;-91
2021/01/23 10:06:48;;;;;;;3.37;3.17;;;5.80;99.90;;;;;;5071043;28;20635;-88
2021/01/23 10:09:15;;;;;;;2.90;2.70;;;6.00;99.90;;;;;;5065407;28;20652;-89
2021/01/23 10:11:42;;;;;;;3.47;2.93;;;6.10;99.90;;;;;;5066849;28;20658;-89
2021/01/23 10:14:09;;;;;;;2.93;2.70;;;6.20;99.90;;;;;;5061035;28;21030;-89
2021/01/23 10:16:36;;;;;;;3.23;3.03;;;6.40;99.90;;;;;;5058544;28;20659;-88
2021/01/23 10:19:04;;;;;;;4.50;4.10;;;6.40;99.90;;;;;;5046862;28;21026;-88
2021/01/23 10:21:30;;;;;;;3.60;3.30;;;6.30;99.90;;;;;;5058916;28;21246;-89
2021/01/23 10:23:57;;;;;;;2.83;2.50;;;6.30;99.90;;;;;;5058453;28;20644;-88
2021/01/23 10:26:23;;;;;;;3.10;2.83;;;6.30;99.90;;;;;;5062701;28;20621;-88
2021/01/23 10:28:51;;;;;;;3.03;2.73;;;6.60;99.90;;;;;;5065058;28;21118;-90
2021/01/23 10:31:17;;;;;;;2.40;2.20;;;6.90;99.90;;;;;;5061519;28;20657;-89
2021/01/23 10:33:43;;;;;;;3.70;3.20;;;6.80;99.90;;;;;;5062649;28;21194;-89
2021/01/23 10:36:10;;;;;;;7.47;3.43;;;6.80;99.90;;;;;;5067518;28;20651;-90
2021/01/23 10:38:37;;;;;;;3.40;3.20;;;6.90;99.90;;;;;;5057985;28;20648;-90
2021/01/23 10:41:05;;;;;;;3.57;3.33;;;6.80;99.90;;;;;;5064935;28;20649;-90
2021/01/23 10:43:32;;;;;;;4.00;3.60;;;6.70;99.90;;;;;;5063393;28;20637;-90
2021/01/23 10:45:59;;;;;;;4.43;3.00;;;6.60;99.90;;;;;;5059864;28;20671;-88
2021/01/23 10:48:26;;;;;;;3.30;3.00;;;6.80;99.90;;;;;;5059489;28;20636;-89
2021/01/23 10:50:52;;;;;;;3.90;3.60;;;6.60;99.90;;;;;;5065969;28;20730;-89
2021/01/23 10:53:18;;;;;;;3.97;3.60;;;6.50;99.90;;;;;;5062095;28;22058;-89
2021/01/23 10:55:45;;;;;;;8.23;3.57;;;6.20;99.90;;;;;;5063373;28;20633;-89
2021/01/23 10:58:13;;;;;;;4.40;4.10;;;6.10;99.90;;;;;;5066788;28;20629;-88
2021/01/23 11:00:39;;;;;;;7.70;4.70;;;6.20;99.90;;;;;;5065383;28;20649;-88
2021/01/23 11:03:06;;;;;;;4.17;3.77;;;6.00;99.90;;;;;;5066609;28;20613;-89
2021/01/23 11:05:33;;;;;;;3.73;3.40;;;6.10;99.90;;;;;;5065402;28;20625;-88
2021/01/23 11:07:59;;;;;;;3.03;2.83;;;6.10;99.90;;;;;;5066536;28;20703;-88
2021/01/23 11:10:25;;;;;;;2.90;2.70;;;6.00;99.90;;;;;;5066651;28;20688;-88
2021/01/23 11:12:52;;;;;;;3.00;2.80;;;6.10;99.90;;;;;;5064471;28;20613;-88
2021/01/23 11:15:19;;;;;;;3.50;3.07;;;6.70;99.90;;;;;;5069223;28;20621;-88
2021/01/23 11:17:46;;;;;;;5.87;3.97;;;6.40;99.90;;;;;;5064713;28;20649;-88
2021/01/23 11:20:14;;;;;;;3.10;2.80;;;6.40;99.90;;;;;;5056276;28;20630;-90
2021/01/23 11:22:40;;;;;;;3.60;3.40;;;6.30;99.90;;;;;;5062768;28;20642;-90
2021/01/23 11:25:08;;;;;;;3.37;3.07;;;6.30;99.90;;;;;;5058061;28;20636;-90
2021/01/23 11:27:35;;;;;;;3.00;2.80;;;6.30;99.90;;;;;;5059803;28;20713;-88
2021/01/23 11:30:01;;;;;;;3.30;3.00;;;6.50;99.90;;;;;;5059447;28;20750;-88
2021/01/23 11:32:28;;;;;;;2.93;2.63;;;6.60;99.90;;;;;;5066451;28;21234;-89
2021/01/23 11:34:54;;;;;;;4.00;3.57;;;6.70;99.90;;;;;;5074831;28;20719;-89
2021/01/23 11:37:21;;;;;;;3.87;3.57;;;6.80;99.90;;;;;;5086761;28;20759;-89
2021/01/23 11:39:48;;;;;;;4.00;3.67;;;7.20;99.90;;;;;;5073826;28;20640;-89
2021/01/23 11:42:14;;;;;;;4.03;3.00;;;7.40;99.90;;;;;;5055985;28;21034;-89
2021/01/23 11:44:43;;;;;;;3.60;3.30;;;7.40;99.90;;;;;;5065310;28;20632;-89
2021/01/23 11:47:09;;;;;;;3.43;3.13;;;7.40;99.90;;;;;;5069397;28;20934;-89
2021/01/23 11:49:36;;;;;;;3.47;2.93;;;7.20;99.90;;;;;;5061990;28;21082;-90
2021/01/23 11:52:03;;;;;;;3.30;3.00;;;7.40;99.90;;;;;;5054951;28;20636;-90
2021/01/23 11:54:32;;;;;;;3.80;2.60;;;7.60;99.90;;;;;;5058672;28;20793;-90
2021/01/23 11:57:00;;;;;;;5.23;2.70;;;7.80;99.90;;;;;;5060686;28;20626;-89
2021/01/23 11:59:26;;;;;;;4.03;3.63;;;7.70;99.90;;;;;;5058648;28;20664;-89
2021/01/23 12:01:53;;;;;;;3.40;3.10;;;7.60;99.90;;;;;;5060002;28;20703;-89
2021/01/23 12:04:19;;;;;;;4.70;3.60;;;7.40;99.90;;;;;;5060206;28;20644;-89
2021/01/23 12:06:47;;;;;;;3.13;2.93;;;7.30;99.90;;;;;;5062973;28;21200;-89
2021/01/23 12:09:13;;;;;;;3.80;3.50;;;7.50;99.90;;;;;;5063301;28;20665;-88
2021/01/23 12:11:40;;;;;;;4.60;3.23;;;7.60;99.90;;;;;;5069162;28;20644;-90
2021/01/23 12:14:07;;;;;;;4.07;3.67;;;8.30;99.90;;;;;;5064532;28;20647;-89
2021/01/23 12:16:33;;;;;;;4.17;3.13;;;8.10;99.90;;;;;;5060572;28;20645;-89
2021/01/23 12:18:59;;;;;;;5.63;4.03;;;8.30;99.90;;;;;;5059720;28;21042;-89
2021/01/23 12:21:27;;;;;;;2.20;1.90;;;8.60;99.90;;;;;;5064788;28;20656;-89
2021/01/23 12:23:53;;;;;;;2.50;2.30;;;8.40;99.90;;;;;;5059126;28;21180;-90
2021/01/23 12:26:20;;;;;;;1.83;1.70;;;8.40;99.90;;;;;;5063330;28;20706;-90
2021/01/23 12:28:47;;;;;;;3.43;2.23;;;8.10;99.90;;;;;;5064766;28;21013;-90
2021/01/23 12:31:14;;;;;;;2.07;1.87;;;7.80;99.90;;;;;;5057969;28;20655;-90
2021/01/23 12:33:41;;;;;;;2.23;2.03;;;8.00;99.90;;;;;;5063414;28;21267;-90
2021/01/23 12:36:07;;;;;;;2.50;2.30;;;8.10;99.90;;;;;;5060751;28;20636;-90
2021/01/23 12:38:34;;;;;;;2.80;2.33;;;8.10;99.90;;;;;;5062026;28;20637;-90
2021/01/23 12:41:03;;;;;;;2.53;2.07;;;8.20;99.90;;;;;;5063847;28;20752;-90
2021/01/23 12:43:29;;;;;;;2.83;2.23;;;8.30;99.90;;;;;;5065083;28;20722;-91
2021/01/23 12:45:57;;;;;;;3.03;1.90;;;8.60;99.90;;;;;;5060580;28;20637;-91
2021/01/23 12:48:23;;;;;;;2.10;1.87;;;8.20;99.90;;;;;;5066188;28;20663;-91
2021/01/23 12:50:50;;;;;;;4.37;2.40;;;8.20;99.90;;;;;;5059296;28;20637;-91
2021/01/23 12:53:17;;;;;;;2.23;2.13;;;8.10;99.90;;;;;;5063231;28;20622;-90
2021/01/23 12:55:44;;;;;;;1.87;1.77;;;8.00;99.90;;;;;;5073654;28;20721;-90
2021/01/23 12:58:11;;;;;;;2.33;2.13;;;7.70;99.90;;;;;;5089649;28;20637;-92
2021/01/23 13:00:37;;;;;;;2.00;1.90;;;7.60;99.90;;;;;;5066534;28;21237;-93
2021/01/23 13:03:06;;;;;;;2.50;2.30;;;8.10;99.90;;;;;;5063120;28;20645;-93